sensor_id;sensor_type;location;lat;lon;timestamp;pressure;altitude;pressure_sealevel;temperature;humidity
28004;BME280;15330;51.234;6.754;2022-12-18T00:03:51;102401.91;;;-3.45;83.26
28004;BME280;15330;51.234;6.754;2022-12-18T00:06:17;102401.75;;;-3.39;82.94
28004;BME280;15330;51.234;6.754;2022-12-18T00:08:43;102406.25;;;-3.46;82.71
28004;BME280;15330;51.234;6.754;2022-12-18T00:11:17;102410.25;;;-3.31;83.02
28004;BME280;15330;51.234;6.754;2022-12-18T00:13:43;102407.66;;;-3.31;82.60
28004;BME280;15330;51.234;6.754;2022-12-18T00:16:11;102405.09;;;-3.33;82.62
28004;BME280;15330;51.234;6.754;2022-12-18T00:18:37;102408.66;;;-3.37;82.90
28004;BME280;15330;51.234;6.754;2022-12-18T00:21:05;102407.88;;;-3.40;82.48
28004;BME280;15330;51.234;6.754;2022-12-18T00:23:31;102412.88;;;-3.31;82.43
28004;BME280;15330;51.234;6.754;2022-12-18T00:26:02;102412.00;;;-3.30;82.37
28004;BME280;15330;51.234;6.754;2022-12-18T00:28:27;102417.44;;;-3.39;82.66
28004;BME280;15330;51.234;6.754;2022-12-18T00:31:20;102405.91;;;-3.32;82.48
28004;BME280;15330;51.234;6.754;2022-12-18T00:33:46;102399.91;;;-3.34;81.94
28004;BME280;15330;51.234;6.754;2022-12-18T00:36:13;102409.78;;;-3.47;82.38
28004;BME280;15330;51.234;6.754;2022-12-18T00:38:39;102414.28;;;-3.53;82.99
28004;BME280;15330;51.234;6.754;2022-12-18T00:41:05;102436.03;;;-3.53;82.70
28004;BME280;15330;51.234;6.754;2022-12-18T00:43:30;102411.78;;;-3.59;83.16
28004;BME280;15330;51.234;6.754;2022-12-18T00:45:58;102408.13;;;-3.52;83.25
28004;BME280;15330;51.234;6.754;2022-12-18T00:48:24;102395.06;;;-3.52;83.29
28004;BME280;15330;51.234;6.754;2022-12-18T00:50:49;102397.69;;;-3.52;82.85
28004;BME280;15330;51.234;6.754;2022-12-18T00:53:16;102397.69;;;-3.52;83.11
28004;BME280;15330;51.234;6.754;2022-12-18T00:55:42;102409.22;;;-3.61;82.96
28004;BME280;15330;51.234;6.754;2022-12-18T00:58:09;102402.22;;;-3.60;82.92
28004;BME280;15330;51.234;6.754;2022-12-18T01:00:35;102410.09;;;-3.62;83.20
28004;BME280;15330;51.234;6.754;2022-12-18T01:03:01;102405.44;;;-3.48;82.95
28004;BME280;15330;51.234;6.754;2022-12-18T01:05:27;102389.41;;;-3.73;83.20
28004;BME280;15330;51.234;6.754;2022-12-18T01:07:52;102397.75;;;-3.54;82.76
28004;BME280;15330;51.234;6.754;2022-12-18T01:10:18;102395.38;;;-3.66;82.96
28004;BME280;15330;51.234;6.754;2022-12-18T01:12:43;102389.97;;;-3.58;82.66
28004;BME280;15330;51.234;6.754;2022-12-18T01:15:10;102397.03;;;-3.62;82.97
28004;BME280;15330;51.234;6.754;2022-12-18T01:17:36;102411.97;;;-3.67;82.94
28004;BME280;15330;51.234;6.754;2022-12-18T01:20:02;102403.03;;;-3.57;82.38
28004;BME280;15330;51.234;6.754;2022-12-18T01:22:28;102399.53;;;-3.56;82.90
28004;BME280;15330;51.234;6.754;2022-12-18T01:24:53;102399.69;;;-3.63;82.76
28004;BME280;15330;51.234;6.754;2022-12-18T01:27:19;102404.00;;;-3.62;82.47
28004;BME280;15330;51.234;6.754;2022-12-18T01:29:44;102404.06;;;-3.64;82.55
28004;BME280;15330;51.234;6.754;2022-12-18T01:32:10;102405.50;;;-3.51;82.08
28004;BME280;15330;51.234;6.754;2022-12-18T01:34:36;102396.69;;;-3.47;82.10
28004;BME280;15330;51.234;6.754;2022-12-18T01:37:03;102387.16;;;-3.49;81.98
28004;BME280;15330;51.234;6.754;2022-12-18T01:39:29;102379.38;;;-3.52;82.01
28004;BME280;15330;51.234;6.754;2022-12-18T01:41:55;102389.78;;;-3.49;82.13
28004;BME280;15330;51.234;6.754;2022-12-18T01:44:55;102393.94;;;-3.42;82.06
28004;BME280;15330;51.234;6.754;2022-12-18T01:49:53;102387.41;;;-3.60;82.69
28004;BME280;15330;51.234;6.754;2022-12-18T01:52:19;102384.75;;;-3.58;82.63
28004;BME280;15330;51.234;6.754;2022-12-18T01:54:46;102391.72;;;-3.59;82.58
28004;BME280;15330;51.234;6.754;2022-12-18T01:57:12;102393.44;;;-3.56;82.16
28004;BME280;15330;51.234;6.754;2022-12-18T01:59:39;102401.47;;;-3.65;82.92
28004;BME280;15330;51.234;6.754;2022-12-18T02:02:06;102398.00;;;-3.66;82.88
28004;BME280;15330;51.234;6.754;2022-12-18T02:04:32;102397.75;;;-3.54;82.18
28004;BME280;15330;51.234;6.754;2022-12-18T02:12:21;102396.28;;;-3.67;82.42
28004;BME280;15330;51.234;6.754;2022-12-18T02:15:07;102380.63;;;-3.68;82.39
28004;BME280;15330;51.234;6.754;2022-12-18T02:20:25;102405.75;;;-3.63;82.74
28004;BME280;15330;51.234;6.754;2022-12-18T02:23:01;102399.59;;;-3.59;82.46
28004;BME280;15330;51.234;6.754;2022-12-18T02:28:35;102389.09;;;-3.57;82.34
28004;BME280;15330;51.234;6.754;2022-12-18T02:31:06;102384.53;;;-3.49;82.46
28004;BME280;15330;51.234;6.754;2022-12-18T02:33:35;102383.69;;;-3.50;82.65
28004;BME280;15330;51.234;6.754;2022-12-18T02:36:02;102374.22;;;-3.55;83.07
28004;BME280;15330;51.234;6.754;2022-12-18T02:38:29;102379.53;;;-3.58;82.86
28004;BME280;15330;51.234;6.754;2022-12-18T02:40:56;102371.66;;;-3.57;82.68
28004;BME280;15330;51.234;6.754;2022-12-18T02:43:22;102369.22;;;-3.64;83.38
28004;BME280;15330;51.234;6.754;2022-12-18T02:45:58;102377.72;;;-3.55;82.77
28004;BME280;15330;51.234;6.754;2022-12-18T02:48:30;102370.63;;;-3.51;82.67
28004;BME280;15330;51.234;6.754;2022-12-18T02:51:18;102392.66;;;-3.61;82.96
28004;BME280;15330;51.234;6.754;2022-12-18T02:53:53;102379.22;;;-3.45;82.83
28004;BME280;15330;51.234;6.754;2022-12-18T02:56:34;102389.34;;;-3.31;82.51
28004;BME280;15330;51.234;6.754;2022-12-18T02:59:31;102368.91;;;-3.52;82.91
28004;BME280;15330;51.234;6.754;2022-12-18T03:04:35;102378.00;;;-3.32;82.15
28004;BME280;15330;51.234;6.754;2022-12-18T03:07:05;102371.19;;;-3.37;81.88
28004;BME280;15330;51.234;6.754;2022-12-18T03:09:36;102381.78;;;-3.43;82.29
28004;BME280;15330;51.234;6.754;2022-12-18T03:12:15;102370.28;;;-3.36;82.08
28004;BME280;15330;51.234;6.754;2022-12-18T03:17:23;102369.41;;;-3.37;82.59
28004;BME280;15330;51.234;6.754;2022-12-18T03:19:51;102376.41;;;-3.37;82.47
28004;BME280;15330;51.234;6.754;2022-12-18T03:22:18;102369.44;;;-3.38;82.36
28004;BME280;15330;51.234;6.754;2022-12-18T03:24:46;102365.75;;;-3.29;82.36
28004;BME280;15330;51.234;6.754;2022-12-18T03:27:17;102355.56;;;-3.42;82.50
28004;BME280;15330;51.234;6.754;2022-12-18T03:29:59;102356.31;;;-3.35;82.21
28004;BME280;15330;51.234;6.754;2022-12-18T03:32:36;102344.25;;;-3.42;82.39
28004;BME280;15330;51.234;6.754;2022-12-18T03:35:05;102351.97;;;-3.36;82.42
28004;BME280;15330;51.234;6.754;2022-12-18T03:37:31;102357.91;;;-3.29;81.76
28004;BME280;15330;51.234;6.754;2022-12-18T03:39:57;102368.03;;;-3.16;81.53
28004;BME280;15330;51.234;6.754;2022-12-18T03:45:27;102362.81;;;-3.16;81.21
28004;BME280;15330;51.234;6.754;2022-12-18T03:48:17;102358.63;;;-3.23;81.46
28004;BME280;15330;51.234;6.754;2022-12-18T03:50:53;102359.34;;;-3.16;81.23
28004;BME280;15330;51.234;6.754;2022-12-18T03:56:29;102358.66;;;-3.24;81.61
28004;BME280;15330;51.234;6.754;2022-12-18T03:58:57;102353.31;;;-3.20;81.57
28004;BME280;15330;51.234;6.754;2022-12-18T04:01:37;102347.47;;;-3.31;81.66
28004;BME280;15330;51.234;6.754;2022-12-18T04:04:04;102346.53;;;-3.28;81.22
28004;BME280;15330;51.234;6.754;2022-12-18T04:06:32;102351.06;;;-3.35;81.31
28004;BME280;15330;51.234;6.754;2022-12-18T04:08:58;102353.34;;;-3.21;81.46
28004;BME280;15330;51.234;6.754;2022-12-18T04:11:23;102338.91;;;-3.38;81.68
28004;BME280;15330;51.234;6.754;2022-12-18T04:13:49;102344.66;;;-3.22;81.03
28004;BME280;15330;51.234;6.754;2022-12-18T04:16:14;102342.47;;;-3.40;81.86
28004;BME280;15330;51.234;6.754;2022-12-18T04:18:39;102334.66;;;-3.42;81.96
28004;BME280;15330;51.234;6.754;2022-12-18T04:21:05;102345.84;;;-3.35;81.78
28004;BME280;15330;51.234;6.754;2022-12-18T04:23:30;102332.66;;;-3.32;81.74
28004;BME280;15330;51.234;6.754;2022-12-18T04:25:56;102335.19;;;-3.27;81.27
28004;BME280;15330;51.234;6.754;2022-12-18T04:28:21;102335.38;;;-3.35;81.58
28004;BME280;15330;51.234;6.754;2022-12-18T04:30:46;102336.94;;;-3.28;81.75
28004;BME280;15330;51.234;6.754;2022-12-18T04:33:12;102342.31;;;-3.33;81.65
28004;BME280;15330;51.234;6.754;2022-12-18T04:35:39;102329.13;;;-3.29;81.75
28004;BME280;15330;51.234;6.754;2022-12-18T04:38:06;102338.13;;;-3.41;82.27
28004;BME280;15330;51.234;6.754;2022-12-18T04:40:33;102327.75;;;-3.44;82.43
28004;BME280;15330;51.234;6.754;2022-12-18T04:42:58;102319.31;;;-3.55;82.24
28004;BME280;15330;51.234;6.754;2022-12-18T04:45:24;102328.00;;;-3.55;82.44
28004;BME280;15330;51.234;6.754;2022-12-18T04:47:49;102324.41;;;-3.51;82.32
28004;BME280;15330;51.234;6.754;2022-12-18T04:50:15;102332.38;;;-3.55;82.33
28004;BME280;15330;51.234;6.754;2022-12-18T04:52:40;102341.84;;;-3.51;82.00
28004;BME280;15330;51.234;6.754;2022-12-18T04:55:06;102329.53;;;-3.46;82.20
28004;BME280;15330;51.234;6.754;2022-12-18T04:57:31;102322.56;;;-3.46;81.99
28004;BME280;15330;51.234;6.754;2022-12-18T04:59:56;102320.91;;;-3.50;82.33
28004;BME280;15330;51.234;6.754;2022-12-18T05:02:22;102312.06;;;-3.44;82.47
28004;BME280;15330;51.234;6.754;2022-12-18T05:04:47;102298.22;;;-3.49;82.27
28004;BME280;15330;51.234;6.754;2022-12-18T05:07:12;102311.19;;;-3.45;82.48
28004;BME280;15330;51.234;6.754;2022-12-18T05:09:38;102303.13;;;-3.36;82.47
28004;BME280;15330;51.234;6.754;2022-12-18T05:12:03;102307.69;;;-3.44;82.23
28004;BME280;15330;51.234;6.754;2022-12-18T05:14:29;102320.84;;;-3.47;82.40
28004;BME280;15330;51.234;6.754;2022-12-18T05:16:54;102317.19;;;-3.41;82.45
28004;BME280;15330;51.234;6.754;2022-12-18T05:19:20;102318.34;;;-2.83;82.35
28004;BME280;15330;51.234;6.754;2022-12-18T05:21:45;102320.66;;;-3.41;81.86
28004;BME280;15330;51.234;6.754;2022-12-18T05:24:11;102316.03;;;-2.96;81.86
28004;BME280;15330;51.234;6.754;2022-12-18T05:26:36;102313.69;;;-3.40;82.20
28004;BME280;15330;51.234;6.754;2022-12-18T05:29:02;102303.81;;;-3.29;81.93
28004;BME280;15330;51.234;6.754;2022-12-18T05:31:27;102311.03;;;-3.39;82.70
28004;BME280;15330;51.234;6.754;2022-12-18T05:33:53;102307.78;;;-3.48;82.92
28004;BME280;15330;51.234;6.754;2022-12-18T05:36:19;102323.47;;;-3.48;82.91
28004;BME280;15330;51.234;6.754;2022-12-18T05:38:44;102333.66;;;-3.36;82.18
28004;BME280;15330;51.234;6.754;2022-12-18T05:41:10;102333.41;;;-3.62;82.45
28004;BME280;15330;51.234;6.754;2022-12-18T05:43:36;102330.75;;;-3.61;82.99
28004;BME280;15330;51.234;6.754;2022-12-18T05:46:07;102333.25;;;-3.55;83.32
28004;BME280;15330;51.234;6.754;2022-12-18T05:48:33;102338.69;;;-3.64;82.83
28004;BME280;15330;51.234;6.754;2022-12-18T05:51:05;102345.81;;;-3.72;83.37
28004;BME280;15330;51.234;6.754;2022-12-18T05:53:31;102343.25;;;-3.74;83.41
28004;BME280;15330;51.234;6.754;2022-12-18T05:56:03;102348.22;;;-3.63;83.40
28004;BME280;15330;51.234;6.754;2022-12-18T05:58:29;102360.34;;;-3.59;83.28
28004;BME280;15330;51.234;6.754;2022-12-18T06:00:54;102356.81;;;-3.56;83.13
28004;BME280;15330;51.234;6.754;2022-12-18T06:03:20;102357.81;;;-3.62;83.51
28004;BME280;15330;51.234;6.754;2022-12-18T06:05:45;102357.03;;;-3.65;83.29
28004;BME280;15330;51.234;6.754;2022-12-18T06:08:12;102369.28;;;-3.67;83.66
28004;BME280;15330;51.234;6.754;2022-12-18T06:10:38;102381.63;;;-3.74;83.85
28004;BME280;15330;51.234;6.754;2022-12-18T06:13:04;102383.84;;;-3.56;83.49
28004;BME280;15330;51.234;6.754;2022-12-18T06:15:30;102395.16;;;-3.55;83.01
28004;BME280;15330;51.234;6.754;2022-12-18T06:17:56;102372.16;;;-3.80;83.82
28004;BME280;15330;51.234;6.754;2022-12-18T06:20:21;102378.22;;;-3.78;84.09
28004;BME280;15330;51.234;6.754;2022-12-18T06:22:47;102367.97;;;-3.50;82.96
28004;BME280;15330;51.234;6.754;2022-12-18T06:25:13;102369.09;;;-3.60;83.44
28004;BME280;15330;51.234;6.754;2022-12-18T06:27:38;102385.66;;;-3.59;83.22
28004;BME280;15330;51.234;6.754;2022-12-18T06:30:04;102374.25;;;-3.57;83.47
28004;BME280;15330;51.234;6.754;2022-12-18T06:32:30;102356.06;;;-3.63;83.85
28004;BME280;15330;51.234;6.754;2022-12-18T06:34:55;102352.78;;;-3.71;84.14
28004;BME280;15330;51.234;6.754;2022-12-18T06:37:21;102351.91;;;-3.72;84.30
28004;BME280;15330;51.234;6.754;2022-12-18T06:39:49;102350.09;;;-3.68;84.08
28004;BME280;15330;51.234;6.754;2022-12-18T06:42:14;102344.94;;;-3.71;84.16
28004;BME280;15330;51.234;6.754;2022-12-18T06:44:39;102335.13;;;-3.61;83.71
28004;BME280;15330;51.234;6.754;2022-12-18T06:47:05;102331.28;;;-3.84;84.01
28004;BME280;15330;51.234;6.754;2022-12-18T06:49:30;102342.22;;;-3.66;83.68
28004;BME280;15330;51.234;6.754;2022-12-18T06:51:56;102324.19;;;-3.79;83.44
28004;BME280;15330;51.234;6.754;2022-12-18T06:54:21;102316.19;;;-3.34;83.68
28004;BME280;15330;51.234;6.754;2022-12-18T06:56:46;102318.50;;;-3.22;82.66
28004;BME280;15330;51.234;6.754;2022-12-18T06:59:13;102317.94;;;-3.35;81.90
28004;BME280;15330;51.234;6.754;2022-12-18T07:01:38;102307.31;;;-3.30;81.95
28004;BME280;15330;51.234;6.754;2022-12-18T07:04:04;102323.72;;;-3.22;81.31
28004;BME280;15330;51.234;6.754;2022-12-18T07:06:29;102326.03;;;-3.11;81.34
28004;BME280;15330;51.234;6.754;2022-12-18T07:08:54;102315.88;;;-3.22;81.21
28004;BME280;15330;51.234;6.754;2022-12-18T07:11:20;102314.84;;;-3.16;80.79
28004;BME280;15330;51.234;6.754;2022-12-18T07:13:46;102311.03;;;-3.39;81.34
28004;BME280;15330;51.234;6.754;2022-12-18T07:16:14;102320.50;;;-3.33;81.65
28004;BME280;15330;51.234;6.754;2022-12-18T07:18:39;102334.38;;;-3.31;80.93
28004;BME280;15330;51.234;6.754;2022-12-18T07:21:06;102317.25;;;-3.43;81.01
28004;BME280;15330;51.234;6.754;2022-12-18T07:23:33;102334.34;;;-3.29;81.17
28004;BME280;15330;51.234;6.754;2022-12-18T07:26:10;102326.59;;;-3.33;80.76
28004;BME280;15330;51.234;6.754;2022-12-18T07:28:37;102314.44;;;-3.35;80.81
28004;BME280;15330;51.234;6.754;2022-12-18T07:31:04;102316.22;;;-3.36;80.70
28004;BME280;15330;51.234;6.754;2022-12-18T07:33:31;102321.47;;;-3.37;80.96
28004;BME280;15330;51.234;6.754;2022-12-18T07:35:58;102306.56;;;-3.34;80.97
28004;BME280;15330;51.234;6.754;2022-12-18T07:38:24;102304.53;;;-3.22;80.82
28004;BME280;15330;51.234;6.754;2022-12-18T07:40:49;102310.63;;;-3.22;80.27
28004;BME280;15330;51.234;6.754;2022-12-18T07:43:14;102316.25;;;-3.03;79.75
28004;BME280;15330;51.234;6.754;2022-12-18T07:45:40;102318.97;;;-3.08;79.65
28004;BME280;15330;51.234;6.754;2022-12-18T07:48:05;102313.09;;;-3.16;79.71
28004;BME280;15330;51.234;6.754;2022-12-18T07:50:30;102312.94;;;-3.11;79.40
28004;BME280;15330;51.234;6.754;2022-12-18T07:52:56;102313.78;;;-3.09;79.34
28004;BME280;15330;51.234;6.754;2022-12-18T07:55:21;102324.28;;;-3.11;79.44
28004;BME280;15330;51.234;6.754;2022-12-18T07:57:46;102331.59;;;-3.23;79.84
28004;BME280;15330;51.234;6.754;2022-12-18T08:00:12;102303.59;;;-3.20;79.92
28004;BME280;15330;51.234;6.754;2022-12-18T08:02:38;102287.50;;;-3.39;80.47
28004;BME280;15330;51.234;6.754;2022-12-18T08:05:03;102290.66;;;-3.26;80.12
28004;BME280;15330;51.234;6.754;2022-12-18T08:07:29;102286.56;;;-3.02;79.38
28004;BME280;15330;51.234;6.754;2022-12-18T08:09:54;102286.38;;;-3.28;80.37
28004;BME280;15330;51.234;6.754;2022-12-18T08:12:19;102285.69;;;-2.39;87.79
28004;BME280;15330;51.234;6.754;2022-12-18T08:14:45;102279.78;;;-2.47;79.91
28004;BME280;15330;51.234;6.754;2022-12-18T08:17:10;102274.56;;;-1.90;79.74
28004;BME280;15330;51.234;6.754;2022-12-18T08:19:36;102262.38;;;-2.19;79.54
28004;BME280;15330;51.234;6.754;2022-12-18T08:22:01;102260.53;;;-2.46;77.46
28004;BME280;15330;51.234;6.754;2022-12-18T08:24:26;102253.69;;;-2.50;77.04
28004;BME280;15330;51.234;6.754;2022-12-18T08:26:52;102256.25;;;-2.80;78.09
28004;BME280;15330;51.234;6.754;2022-12-18T08:29:17;102245.84;;;-2.81;77.67
28004;BME280;15330;51.234;6.754;2022-12-18T08:31:42;102242.25;;;-2.18;76.07
28004;BME280;15330;51.234;6.754;2022-12-18T08:34:08;102238.44;;;-2.38;76.09
28004;BME280;15330;51.234;6.754;2022-12-18T08:36:34;102244.91;;;-1.92;74.63
28004;BME280;15330;51.234;6.754;2022-12-18T08:39:00;102253.25;;;-1.79;73.96
28004;BME280;15330;51.234;6.754;2022-12-18T08:41:25;102248.13;;;-1.84;74.44
28004;BME280;15330;51.234;6.754;2022-12-18T08:43:51;102244.13;;;-1.96;75.10
28004;BME280;15330;51.234;6.754;2022-12-18T08:46:37;102251.75;;;-2.16;75.20
28004;BME280;15330;51.234;6.754;2022-12-18T08:49:03;102250.00;;;-2.15;75.03
28004;BME280;15330;51.234;6.754;2022-12-18T08:51:29;102242.47;;;-2.26;75.72
28004;BME280;15330;51.234;6.754;2022-12-18T08:53:55;102233.56;;;-1.93;74.29
28004;BME280;15330;51.234;6.754;2022-12-18T08:56:20;102250.97;;;-1.13;72.35
28004;BME280;15330;51.234;6.754;2022-12-18T08:58:45;102250.38;;;-1.72;73.54
28004;BME280;15330;51.234;6.754;2022-12-18T09:01:12;102261.66;;;-1.43;72.64
28004;BME280;15330;51.234;6.754;2022-12-18T09:03:38;102243.53;;;-1.00;71.29
28004;BME280;15330;51.234;6.754;2022-12-18T09:06:05;102247.56;;;-1.15;71.17
28004;BME280;15330;51.234;6.754;2022-12-18T09:08:30;102251.75;;;-1.09;71.76
28004;BME280;15330;51.234;6.754;2022-12-18T09:10:56;102247.13;;;-1.27;71.99
28004;BME280;15330;51.234;6.754;2022-12-18T09:13:22;102238.75;;;-1.38;72.17
28004;BME280;15330;51.234;6.754;2022-12-18T09:15:49;102231.31;;;-0.76;70.60
28004;BME280;15330;51.234;6.754;2022-12-18T09:18:16;102253.09;;;-0.97;71.34
28004;BME280;15330;51.234;6.754;2022-12-18T09:20:42;102238.03;;;-0.69;70.63
28004;BME280;15330;51.234;6.754;2022-12-18T09:23:08;102245.69;;;-0.86;70.52
28004;BME280;15330;51.234;6.754;2022-12-18T09:25:35;102249.88;;;-0.57;69.88
28004;BME280;15330;51.234;6.754;2022-12-18T09:30:30;102241.63;;;-0.25;68.81
28004;BME280;15330;51.234;6.754;2022-12-18T09:32:58;102213.63;;;-0.49;69.25
28004;BME280;15330;51.234;6.754;2022-12-18T09:35:23;102254.38;;;-0.38;69.47
28004;BME280;15330;51.234;6.754;2022-12-18T09:37:49;102241.50;;;-0.22;67.91
28004;BME280;15330;51.234;6.754;2022-12-18T09:40:16;102225.88;;;0.19;67.64
28004;BME280;15330;51.234;6.754;2022-12-18T09:42:48;102215.50;;;-0.08;67.77
28004;BME280;15330;51.234;6.754;2022-12-18T09:45:17;102199.38;;;-0.42;69.11
28004;BME280;15330;51.234;6.754;2022-12-18T09:47:45;102207.34;;;-0.45;68.74
28004;BME280;15330;51.234;6.754;2022-12-18T09:52:49;102221.53;;;-0.04;67.17
28004;BME280;15330;51.234;6.754;2022-12-18T09:57:55;102202.69;;;-0.15;67.68
28004;BME280;15330;51.234;6.754;2022-12-18T10:00:23;102203.56;;;-0.61;68.51
28004;BME280;15330;51.234;6.754;2022-12-18T10:02:51;102210.41;;;-0.11;67.42
28004;BME280;15330;51.234;6.754;2022-12-18T10:08:05;102212.16;;;-0.33;67.48
28004;BME280;15330;51.234;6.754;2022-12-18T10:10:39;102208.69;;;-0.12;67.54
28004;BME280;15330;51.234;6.754;2022-12-18T10:16:35;102192.53;;;-0.24;67.41
28004;BME280;15330;51.234;6.754;2022-12-18T10:24:55;102178.53;;;-0.03;66.79
28004;BME280;15330;51.234;6.754;2022-12-18T10:27:26;102179.16;;;-0.63;67.70
28004;BME280;15330;51.234;6.754;2022-12-18T10:29:52;102179.38;;;-0.24;66.51
28004;BME280;15330;51.234;6.754;2022-12-18T10:32:23;102174.81;;;0.01;65.97
28004;BME280;15330;51.234;6.754;2022-12-18T10:34:51;102156.94;;;-0.11;66.56
28004;BME280;15330;51.234;6.754;2022-12-18T10:37:19;102156.78;;;-0.08;66.68
28004;BME280;15330;51.234;6.754;2022-12-18T10:39:46;102153.91;;;0.60;64.79
28004;BME280;15330;51.234;6.754;2022-12-18T10:42:29;102157.97;;;0.67;65.60
28004;BME280;15330;51.234;6.754;2022-12-18T10:45:05;102204.44;;;-0.16;66.30
28004;BME280;15330;51.234;6.754;2022-12-18T10:47:34;102168.91;;;0.38;65.60
28004;BME280;15330;51.234;6.754;2022-12-18T10:49:59;102151.59;;;0.32;65.45
28004;BME280;15330;51.234;6.754;2022-12-18T10:52:25;102146.66;;;0.25;65.66
28004;BME280;15330;51.234;6.754;2022-12-18T10:54:55;102158.53;;;0.13;65.86
28004;BME280;15330;51.234;6.754;2022-12-18T10:59:53;102162.25;;;-0.13;66.28
28004;BME280;15330;51.234;6.754;2022-12-18T11:02:37;102130.47;;;0.34;65.52
28004;BME280;15330;51.234;6.754;2022-12-18T11:05:23;102133.78;;;0.19;65.69
28004;BME280;15330;51.234;6.754;2022-12-18T11:07:50;102117.38;;;0.32;65.48
28004;BME280;15330;51.234;6.754;2022-12-18T11:10:20;102131.09;;;0.20;65.53
28004;BME280;15330;51.234;6.754;2022-12-18T11:12:46;102125.84;;;-0.02;66.26
28004;BME280;15330;51.234;6.754;2022-12-18T11:15:20;102116.44;;;-0.29;66.80
28004;BME280;15330;51.234;6.754;2022-12-18T11:17:50;102126.53;;;0.24;65.63
28004;BME280;15330;51.234;6.754;2022-12-18T11:20:30;102123.38;;;0.16;65.96
28004;BME280;15330;51.234;6.754;2022-12-18T11:23:05;102127.78;;;0.35;65.41
28004;BME280;15330;51.234;6.754;2022-12-18T11:25:36;102138.66;;;0.48;65.15
28004;BME280;15330;51.234;6.754;2022-12-18T11:28:25;102133.91;;;0.36;65.38
28004;BME280;15330;51.234;6.754;2022-12-18T11:31:28;102115.47;;;0.36;65.35
28004;BME280;15330;51.234;6.754;2022-12-18T11:34:04;102110.38;;;-0.09;66.56
28004;BME280;15330;51.234;6.754;2022-12-18T11:36:38;102098.72;;;0.18;65.89
28004;BME280;15330;51.234;6.754;2022-12-18T11:39:19;102098.44;;;0.24;66.22
28004;BME280;15330;51.234;6.754;2022-12-18T11:41:52;102105.00;;;0.34;66.37
28004;BME280;15330;51.234;6.754;2022-12-18T11:47:10;102077.19;;;-0.12;66.65
28004;BME280;15330;51.234;6.754;2022-12-18T11:49:38;102083.47;;;-0.16;67.76
28004;BME280;15330;51.234;6.754;2022-12-18T11:52:27;102089.13;;;-0.25;67.76
28004;BME280;15330;51.234;6.754;2022-12-18T11:54:58;102085.38;;;-0.19;68.03
28004;BME280;15330;51.234;6.754;2022-12-18T11:57:51;102074.09;;;-0.21;68.22
28004;BME280;15330;51.234;6.754;2022-12-18T12:00:21;102069.81;;;-0.24;68.41
28004;BME280;15330;51.234;6.754;2022-12-18T12:05:43;102072.69;;;-0.10;67.59
28004;BME280;15330;51.234;6.754;2022-12-18T12:09:07;102074.63;;;0.07;68.17
28004;BME280;15330;51.234;6.754;2022-12-18T12:23:08;102043.28;;;-0.40;68.22
28004;BME280;15330;51.234;6.754;2022-12-18T12:25:57;102048.09;;;-0.29;68.23
28004;BME280;15330;51.234;6.754;2022-12-18T12:28:55;102043.84;;;-0.31;68.40
28004;BME280;15330;51.234;6.754;2022-12-18T12:34:20;102055.31;;;-0.34;68.08
28004;BME280;15330;51.234;6.754;2022-12-18T12:39:33;102047.44;;;-0.34;69.16
28004;BME280;15330;51.234;6.754;2022-12-18T12:42:02;102033.56;;;-0.59;69.29
28004;BME280;15330;51.234;6.754;2022-12-18T12:44:51;102028.38;;;-0.61;69.25
28004;BME280;15330;51.234;6.754;2022-12-18T12:47:31;102025.31;;;-0.72;69.29
28004;BME280;15330;51.234;6.754;2022-12-18T12:49:59;102037.91;;;-0.58;69.55
28004;BME280;15330;51.234;6.754;2022-12-18T12:52:50;102034.06;;;-0.71;69.74
28004;BME280;15330;51.234;6.754;2022-12-18T12:55:20;102030.78;;;-0.55;69.81
28004;BME280;15330;51.234;6.754;2022-12-18T13:01:01;102031.91;;;-0.62;70.04
28004;BME280;15330;51.234;6.754;2022-12-18T13:06:42;102027.66;;;-0.64;70.11
28004;BME280;15330;51.234;6.754;2022-12-18T13:09:10;102039.41;;;-0.73;70.31
28004;BME280;15330;51.234;6.754;2022-12-18T13:11:42;102032.44;;;-0.52;70.63
28004;BME280;15330;51.234;6.754;2022-12-18T13:14:33;102019.94;;;-0.47;69.88
28004;BME280;15330;51.234;6.754;2022-12-18T13:19:39;102018.66;;;-0.59;69.76
28004;BME280;15330;51.234;6.754;2022-12-18T13:22:21;102010.53;;;-0.53;69.57
28004;BME280;15330;51.234;6.754;2022-12-18T13:24:47;102012.38;;;-0.55;70.07
28004;BME280;15330;51.234;6.754;2022-12-18T13:35:52;101984.56;;;-0.60;70.36
28004;BME280;15330;51.234;6.754;2022-12-18T13:43:23;101983.72;;;-0.61;69.68
28004;BME280;15330;51.234;6.754;2022-12-18T13:48:43;101988.44;;;-0.69;70.05
28004;BME280;15330;51.234;6.754;2022-12-18T13:51:17;101978.13;;;-0.73;70.03
28004;BME280;15330;51.234;6.754;2022-12-18T13:53:46;101967.47;;;-0.92;70.09
28004;BME280;15330;51.234;6.754;2022-12-18T13:56:46;101983.00;;;-0.64;69.28
28004;BME280;15330;51.234;6.754;2022-12-18T14:01:44;101955.94;;;-0.66;69.13
28004;BME280;15330;51.234;6.754;2022-12-18T14:04:18;101954.09;;;-0.64;69.78
28004;BME280;15330;51.234;6.754;2022-12-18T14:06:44;101954.09;;;-0.64;69.54
28004;BME280;15330;51.234;6.754;2022-12-18T14:09:14;101961.50;;;-0.74;69.95
28004;BME280;15330;51.234;6.754;2022-12-18T14:11:40;101953.75;;;-0.77;70.11
28004;BME280;15330;51.234;6.754;2022-12-18T14:14:14;101943.88;;;-0.72;69.91
28004;BME280;15330;51.234;6.754;2022-12-18T14:16:40;101954.66;;;-0.78;69.72
28004;BME280;15330;51.234;6.754;2022-12-18T14:19:15;101939.81;;;-0.79;70.08
28004;BME280;15330;51.234;6.754;2022-12-18T14:21:47;101936.38;;;-0.81;70.61
28004;BME280;15330;51.234;6.754;2022-12-18T14:24:14;101928.44;;;-0.80;70.36
28004;BME280;15330;51.234;6.754;2022-12-18T14:26:41;101932.13;;;-0.84;70.02
28004;BME280;15330;51.234;6.754;2022-12-18T14:29:22;101925.88;;;-0.81;69.87
28004;BME280;15330;51.234;6.754;2022-12-18T14:32:23;101924.16;;;-0.82;70.12
28004;BME280;15330;51.234;6.754;2022-12-18T14:34:51;101914.59;;;-0.83;70.21
28004;BME280;15330;51.234;6.754;2022-12-18T14:37:21;101925.75;;;-0.78;70.34
28004;BME280;15330;51.234;6.754;2022-12-18T14:40:01;101930.72;;;-0.92;70.31
28004;BME280;15330;51.234;6.754;2022-12-18T14:42:28;101924.53;;;-0.91;70.54